X  Fermer Données météorologiques d'aviation de Metar     LFQQ Lille-Lesquin
Température
18°C Température
7°C Point de rosée
49% Humidité



Vitesse
21 KM/H
13 MPH
6 M/S
11 KTS



20°
NNE
Conditions actuelles

Claire Claire
Pression 1022.92 (hPa) - 30.21 (inHg)
Visibilité 6.2 (mile) - 10 (km)
Aéroport
Code de l'aéroport LFQQ

Emplacement: Lille-Lesquin
Distance: 15 (km)

Metar:
LFQQ 292000Z AUTO 02011KT CAVOK 18/07 Q1023 NOSIG

Temps: 29-05-2020 22:00 CEST